• Join FlightAware (Why Join?)
  • Login
  • US Flag 
11:52AM EDT


 

Airport Tracker/Info


-or-


 

Live Flight TrackerFlight Track Log ✈ AAL832 ✈ 29-Jun-2013 ✈ KLAX - KORD

Flight Track Log - Related Links

Times and Time Zones

All times are in EDT time to prevent confusion due to time zone crossing. See the AAL832 flight status page for this flight to view local times or setup timezone preferences in your user account.

Time Position Orientation Groundspeed Altitude Reporting Facility
EDT Latitude Longitude Course Direction KTS MPH feet Rate Location/Type
12:58PM 33.9439 -118.4672 46° Northeast 197 227 1,500  Level Los Angeles Center
12:59PM 33.9369 -118.5372 263° West 212 244 2,700 1,260 Climbing Los Angeles Center
01:00PM 34.1214 -118.0905 59° Northeast  Level FlightAware Approximate
01:00PM 33.9244 -118.6244 260° West 262 302 4,400  Level Los Angeles Center
01:01PM 34.1840 -117.9653 59° Northeast  Level FlightAware Approximate
01:02PM 34.2467 -117.8400 59° Northeast  Level FlightAware Approximate
01:02PM 33.8400 -118.6469 192° South 278 320 7,100  Level Los Angeles Center
01:03PM 34.3240 -117.7283 46° Northeast  Level FlightAware Approximate
01:03PM 33.8472 -118.5403 85° East 301 346 9,700  Level Los Angeles Center
01:04PM 33.9103 -118.4625 46° Northeast 328 377 11,200 1,560 Climbing Los Angeles Center
01:05PM 33.9764 -118.3603 52° Northeast 362 417 13,000 1,740 Climbing Los Angeles Center
01:06PM 34.0367 -118.2506 56° Northeast 386 444 14,900 1,980 Climbing Los Angeles Center
01:07PM 34.1008 -118.1383 55° Northeast 402 463 17,200 2,220 Climbing Los Angeles Center
01:08PM 34.1631 -118.0281 56° Northeast 400 460 19,500 1,800 Climbing Los Angeles Center
01:09PM 34.2275 -117.9122 56° Northeast 411 473 21,000 1,440 Climbing Los Angeles Center
01:10PM 34.2942 -117.7942 56° Northeast 423 487 22,500 1,560 Climbing Los Angeles Center
01:11PM 34.3783 -117.6458 55° Northeast 444 511 24,300 1,500 Climbing Los Angeles Center
01:12PM 34.4486 -117.5472 49° Northeast 452 520 25,600 1,380 Climbing Los Angeles Center
01:13PM 34.5475 -117.4069 49° Northeast 459 528 27,200 1,260 Climbing Los Angeles Center
01:14PM 34.6308 -117.2886 49° Northeast 465 535 28,300 1,020 Climbing Los Angeles Center
01:15PM 34.7156 -117.1675 50° Northeast 473 544 29,400 1,200 Climbing Los Angeles Center
01:16PM 34.7994 -117.0450 50° Northeast 476 548 30,800 1,200 Climbing Los Angeles Center
01:17PM 34.8839 -116.9236 50° Northeast 473 544 31,900 960 Climbing Los Angeles Center
01:18PM 34.9867 -116.7767 49° Northeast 478 550 32,800 960 Climbing Los Angeles Center
01:19PM 35.0733 -116.6497 50° Northeast 485 558 33,900 1,020 Climbing Los Angeles Center
01:20PM 35.1575 -116.5267 50° Northeast 479 551 35,000 480 Climbing Los Angeles Center
01:21PM 35.2422 -116.4036 50° Northeast 475 547 35,000  Level Los Angeles Center
01:23PM 35.3442 -116.2531 50° Northeast 480 552 35,000  Level Los Angeles Center
01:24PM 35.4614 -116.0772 51° Northeast 479 551 35,000  Level Los Angeles Center
01:25PM 35.5489 -115.9522 49° Northeast 482 555 35,000  Level Los Angeles Center
01:26PM 35.6453 -115.8108 50° Northeast 483 556 35,000  Level Los Angeles Center
01:27PM 35.7297 -115.6856 50° Northeast 478 550 35,000  Level Los Angeles Center
01:28PM 35.8133 -115.5594 51° Northeast 477 549 35,000  Level Los Angeles Center
01:29PM 35.8983 -115.4319 51° Northeast 481 554 35,000  Level Los Angeles Center
01:30PM 35.9983 -115.2811 51° Northeast 478 550 35,000  Level Los Angeles Center
01:31PM 36.0942 -115.1281 52° Northeast 474 545 35,000  Level Los Angeles Center
01:32PM 36.1600 -114.9853 60° Northeast 478 550 35,000  Level Los Angeles Center
01:33PM 36.2286 -114.8417 59° Northeast 485 558 35,000  Level Los Angeles Center
01:34PM 36.2956 -114.6978 60° Northeast 485 558 35,000  Level Los Angeles Center
01:35PM 36.3617 -114.5544 60° Northeast 481 554 35,000  Level Los Angeles Center
01:36PM 36.4275 -114.4111 60° Northeast 479 551 35,000  Level Los Angeles Center
01:37PM 36.5072 -114.2392 60° Northeast 479 551 35,000  Level Los Angeles Center
01:38PM 36.5706 -114.0992 61° Northeast 473 544 35,000  Level Los Angeles Center
01:39PM 36.6367 -113.9553 60° Northeast 478 550 35,000  Level Los Angeles Center
01:40PM 36.7014 -113.8117 61° Northeast 477 549 35,000  Level Los Angeles Center
01:41PM 36.7661 -113.6689 60° Northeast 475 547 35,000  Level Los Angeles Center
01:43PM 36.8181 -113.5536 61° Northeast 476 548 35,000  Level Los Angeles Center
01:44PM 36.9081 -113.3506 61° Northeast 478 550 35,000  Level Los Angeles Center
01:45PM 36.9733 -113.2044 61° Northeast 481 554 35,000  Level Los Angeles Center
01:46PM 37.0500 -113.0300 61° Northeast 480 552 35,000  Level Los Angeles Center
01:47PM 37.1136 -112.8867 61° Northeast 474 545 35,000  Level Los Angeles Center
01:48PM 37.1892 -112.7153 61° Northeast 473 544 35,000  Level Los Angeles Center
01:49PM 37.2511 -112.5728 61° Northeast 471 542 35,000  Level Los Angeles Center
01:50PM 37.3136 -112.4300 61° Northeast 472 543 35,000  Level Los Angeles Center
01:51PM 37.3764 -112.2878 61° Northeast 471 542 35,000  Level Los Angeles Center
01:52PM 37.4389 -112.1442 61° Northeast 471 542 35,000  Level Los Angeles Center
01:53PM 37.5169 -111.9400 64° Northeast 467 537 35,000  Level Salt Lake Center
01:54PM 37.5558 -111.7847 72° East 468 539 35,000  Level Salt Lake Center
01:55PM 37.5958 -111.6289 72° East 467 537 35,000  Level Salt Lake Center
01:56PM 37.6353 -111.4747 72° East 465 535 35,000  Level Salt Lake Center
01:57PM 37.6761 -111.3189 72° East 468 539 35,000  Level Salt Lake Center
01:58PM 37.7219 -111.1311 73° East 468 539 35,000  Level Salt Lake Center
02:00PM 37.7686 -110.9458 72° East 464 534 35,000  Level Denver Center
02:01PM 37.8067 -110.7903 73° East 465 535 35,000  Level Denver Center
02:02PM 37.8453 -110.6344 73° East 465 535 35,000  Level Denver Center
02:03PM 37.8867 -110.4678 72° East 463 533 35,000  Level Denver Center
02:04PM 37.9233 -110.3167 73° East 467 537 35,000  Level Denver Center
02:05PM 37.9656 -110.1436 73° East 464 534 35,000  Level Denver Center
02:06PM 38.0017 -109.9933 73° East 464 534 35,000  Level Denver Center
02:07PM 38.0417 -109.8392 72° East 465 535 35,000  Level Denver Center
02:08PM 38.0869 -109.6658 72° East 464 534 35,000  Level Denver Center
02:09PM 38.1242 -109.5158 72° East 466 536 35,000  Level Denver Center
02:10PM 38.1689 -109.3406 72° East 467 537 35,000  Level Denver Center
02:11PM 38.2067 -109.1906 72° East 468 539 35,000  Level Denver Center
02:12PM 38.2508 -109.0167 72° East 465 535 35,000  Level Denver Center
02:13PM 38.2872 -108.8639 73° East 468 539 35,000  Level Denver Center
02:14PM 38.3311 -108.6914 72° East 462 532 35,000  Level Denver Center
02:15PM 38.3681 -108.5425 72° East 462 532 35,000 540 Level Denver Center
02:16PM 38.4100 -108.3694 73° East 460 529 36,200 840 Climbing Denver Center
02:17PM 38.4461 -108.2217 73° East 458 527 36,800 360 Climbing Denver Center
02:18PM 38.4881 -108.0464 73° East 463 533 37,000 60 Climbing Denver Center
02:19PM 38.5242 -107.8964 73° East 463 533 37,000  Level Denver Center
02:20PM 38.5658 -107.7197 73° East 466 536 37,000  Level Denver Center
02:21PM 38.6008 -107.5686 73° East 464 534 37,000  Level Denver Center
02:22PM 38.6428 -107.3911 73° East 467 537 37,000  Level Denver Center
02:23PM 38.6775 -107.2392 74° East 466 536 37,000  Level Denver Center
02:24PM 38.7125 -107.0867 74° East 467 537 37,000  Level Denver Center
02:26PM 38.7542 -106.9022 74° East 462 532 37,000  Level Denver Center
02:27PM 38.7906 -106.7436 74° East 464 534 37,000  Level Denver Center
02:28PM 38.8319 -106.5872 71° East 465 535 37,000  Level Denver Center
02:29PM 38.8739 -106.4308 71° East 466 536 37,000  Level Denver Center
02:30PM 38.9211 -106.2564 71° East 470 541 37,000  Level Denver Center
02:31PM 38.9619 -106.1039 71° East 462 532 37,000  Level Denver Center
02:32PM 39.0033 -105.9483 71° East 462 532 37,000  Level Denver Center
02:33PM 39.0525 -105.7617 71° East 462 532 37,000  Level Denver Center
02:34PM 39.0931 -105.6058 71° East 462 532 37,000  Level Denver Center
02:35PM 39.1336 -105.4478 72° East 464 534 37,000  Level Denver Center
02:36PM 39.1772 -105.2911 70° East 468 539 37,000  Level Denver Center
02:37PM 39.2172 -105.1319 72° East 471 542 37,000  Level Denver Center
02:38PM 39.2569 -104.9731 72° East 470 541 37,000  Level Denver Center
02:39PM 39.3044 -104.7833 72° East 467 537 37,000  Level Denver Center
02:40PM 39.3442 -104.6244 72° East 472 543 37,000  Level Denver Center
02:41PM 39.3842 -104.4661 72° East 472 543 37,000  Level Denver Center
02:42PM 39.4231 -104.3069 72° East 472 543 37,000  Level Denver Center
02:43PM 39.4706 -104.1144 72° East 474 545 37,000  Level Denver Center
02:44PM 39.5069 -103.9522 74° East 473 544 37,000  Level Denver Center
02:45PM 39.5292 -103.7842 80° East 479 551 37,000  Level Denver Center
02:46PM 39.5536 -103.6192 79° East 466 536 37,000  Level Denver Center
02:47PM 39.5764 -103.4522 80° East 472 543 37,000  Level Denver Center
02:48PM 39.6006 -103.2850 79° East 474 545 37,000  Level Denver Center
02:49PM 39.6281 -103.0864 80° East 470 541 37,000  Level Denver Center
02:50PM 39.6489 -102.9214 81° East 464 534 37,000  Level Denver Center
02:51PM 39.6708 -102.7589 80° East 459 528 37,000  Level Denver Center
02:52PM 39.6922 -102.5944 80° East 459 528 37,000  Level Denver Center
02:53PM 39.7158 -102.4142 80° East 454 522 37,000  Level Denver Center
02:54PM 39.7347 -102.2592 81° East 454 522 37,000  Level Denver Center
02:55PM 39.7581 -102.0772 80° East 457 526 37,000  Level Denver Center
02:57PM 39.7772 -101.9219 81° East 456 525 37,000  Level Denver Center
02:58PM 39.7981 -101.7367 82° East 463 533 37,000  Level Denver Center
02:59PM 39.8083 -101.5756 85° East 467 537 37,000  Level Denver Center
03:00PM 39.8219 -101.3872 85° East 470 541 37,000  Level Denver Center
03:01PM 39.8367 -101.1981 84° East 472 543 37,000  Level Denver Center
03:02PM 39.8492 -101.0097 85° East 471 542 37,000  Level Denver Center
03:03PM 39.8611 -100.8494 84° East 467 537 37,000  Level Denver Center
03:04PM 39.8736 -100.6603 85° East 471 542 37,000  Level Denver Center
03:05PM 39.8850 -100.5008 85° East 468 539 37,000  Level Denver Center
03:06PM 39.8967 -100.3131 85° East 468 539 37,000  Level Denver Center
03:07PM 39.9064 -100.1594 85° East 465 535 37,000  Level Denver Center
03:08PM 39.9169 -99.9917 85° East 466 536 37,000  Level Denver Center
03:09PM 39.9297 -99.7906 85° East 465 535 37,000  Level Denver Center
03:10PM 39.9394 -99.6206 86° East 469 540 37,000  Level Denver Center
03:11PM 39.9486 -99.4503 86° East 471 542 37,000  Level Denver Center
03:12PM 39.9578 -99.2797 86° East 472 543 37,000  Level Denver Center
03:13PM 39.9678 -99.1078 86° East 476 548 37,000  Level Denver Center
03:14PM 39.9764 -98.9358 86° East 478 550 37,000  Level Denver Center
03:15PM 39.9856 -98.7644 86° East 480 552 37,000  Level Minneapolis Center
03:16PM 39.9939 -98.5911 86° East 481 554 37,000  Level Minneapolis Center
03:17PM 40.0047 -98.3789 86° East 488 562 37,000  Level Minneapolis Center
03:18PM 40.0125 -98.2039 87° East 488 562 37,000  Level Minneapolis Center
03:19PM 40.0200 -98.0297 87° East 486 559 37,000  Level Minneapolis Center
03:20PM 40.0272 -97.8561 87° East 484 557 37,000  Level Minneapolis Center
03:21PM 40.0347 -97.6822 87° East 483 556 37,000  Level Minneapolis Center
03:22PM 40.0417 -97.5097 87° East 481 554 37,000  Level Minneapolis Center
03:23PM 40.0492 -97.3356 87° East 481 554 37,000  Level Minneapolis Center
03:25PM 40.0569 -97.1292 87° East 481 554 37,000  Level Minneapolis Center
03:26PM 40.0633 -96.9519 87° East 482 555 37,000  Level Minneapolis Center
03:27PM 40.0689 -96.7764 88° East 487 560 37,000  Level Minneapolis Center
03:28PM 40.0750 -96.6006 87° East 488 562 37,000  Level Minneapolis Center
03:29PM 40.0803 -96.4247 88° East 487 560 37,000  Level Minneapolis Center
03:30PM 40.0864 -96.2500 87° East 485 558 37,000  Level Minneapolis Center
03:31PM 40.0922 -96.0261 88° East 487 560 37,000  Level Kansas City Center
03:32PM 40.0961 -95.8572 88° East 485 558 37,000  Level Kansas City Center
03:33PM 40.1008 -95.6875 88° East 486 559 37,000  Level Kansas City Center
03:34PM 40.1058 -95.4883 88° East 488 562 37,000  Level Kansas City Center
03:35PM 40.1089 -95.3194 89° East 485 558 37,000  Level Kansas City Center
03:36PM 40.1128 -95.1214 88° East 487 560 37,000  Level Kansas City Center
03:37PM 40.1169 -94.9494 88° East 492 566 37,000  Level Kansas City Center
03:38PM 40.1189 -94.7794 89° East 488 562 37,000  Level Kansas City Center
03:39PM 40.1228 -94.5806 88° East 489 563 37,000  Level Kansas City Center
03:40PM 40.1247 -94.4117 89° East 486 559 37,000  Level Kansas City Center
03:41PM 40.1278 -94.2133 89° East 487 560 37,000  Level Kansas City Center
03:42PM 40.1278 -94.0439 90° East 488 562 37,000  Level Kansas City Center
03:43PM 40.1508 -93.8794 80° East 472 543 37,000  Level Kansas City Center
03:44PM 40.1803 -93.7169 77° East 465 535 37,000  Level Kansas City Center
03:45PM 40.2069 -93.5539 78° East 463 533 37,000  Level Kansas City Center
03:46PM 40.2403 -93.3597 77° East 460 529 37,000  Level Kansas City Center
03:47PM 40.2692 -93.1969 77° East 463 533 37,000  Level Kansas City Center
03:48PM 40.2986 -93.0197 78° East 462 532 37,000  Level Kansas City Center
03:49PM 40.3256 -92.8622 77° East 462 532 37,000  Level Kansas City Center
03:50PM 40.3531 -92.7050 77° East 464 534 37,000  Level Kansas City Center
03:51PM 40.3769 -92.5325 80° East 470 541 37,000  Level Kansas City Center
03:52PM 40.4067 -92.3581 77° East 470 541 37,000  Level Chicago Center
03:53PM 40.4322 -92.1925 78° East 467 537 37,000  Level Chicago Center
03:54PM 40.4628 -91.9939 79° East 466 536 37,000  Level Kansas City Center
03:55PM 40.4847 -91.8622 78° East 465 535 37,000 -300 Level Chicago Center
03:56PM 40.5075 -91.6978 80° East 462 532 36,500 -1,140 Descending Chicago Center
03:57PM 40.5372 -91.5050 78° East 454 522 34,700 -1,740 Descending Chicago Center
03:58PM 40.5686 -91.3564 74° East 433 498 33,000 -840 Descending Chicago Center
03:59PM 40.6189 -91.2147 65° Northeast 429 494 33,000  Level Chicago Center
04:00PM 40.6692 -91.0692 65° Northeast 434 499 33,000  Level Chicago Center
04:02PM 40.7178 -90.9219 66° East 437 503 33,000 -540 Level Chicago Center
04:03PM 40.7686 -90.7736 66° East 444 511 32,000 -1,260 Descending Chicago Center
04:04PM 40.8194 -90.6247 66° East 443 510 30,500 -1,320 Descending Chicago Center
04:05PM 40.8706 -90.4728 66° East 451 519 29,300 -1,020 Descending Chicago Center
04:06PM 40.9200 -90.3217 67° East 447 514 28,500 -900 Descending Chicago Center
04:07PM 40.9764 -90.1525 66° East 437 503 27,500 -1,080 Descending Chicago Center
04:08PM 41.0267 -89.9989 67° East 428 493 26,300 -1,200 Descending Chicago Center
04:09PM 41.0733 -89.8567 66° East 419 482 25,100 -1,140 Descending Chicago Center
04:10PM 41.1192 -89.7164 67° East 413 475 24,000 -720 Descending Chicago Center
04:11PM 41.1644 -89.5772 67° East 411 473 23,700 -1,140 Descending Chicago Center
04:12PM 41.2186 -89.4439 62° Northeast 408 470 21,700 -1,980 Descending Chicago Center
04:13PM 41.2717 -89.3136 62° Northeast 401 461 19,700 -2,100 Descending Chicago Center
04:14PM 41.3244 -89.1794 62° Northeast 390 449 17,400 -1,980 Descending Chicago Center
04:15PM 41.3733 -89.0578 62° Northeast 377 434 15,700 -1,740 Descending Chicago Center
04:16PM 41.4200 -88.9408 62° Northeast 363 418 13,900 -1,800 Descending Chicago Center
04:17PM 41.4642 -88.8269 63° Northeast 351 404 12,100 -1,440 Descending Chicago Center
04:18PM 41.5133 -88.6939 64° Northeast 336 387 11,000 -540 Descending Chicago Center
04:19PM 41.5258 -88.5867 81° East 297 342 11,000 -300 Level Chicago Center
04:20PM 41.5453 -88.4858 76° East 292 336 10,400 -1,020 Descending Chicago Center
04:21PM 41.5972 -88.4078 48° Northeast 285 328 9,000 -1,200 Descending Chicago Center
04:22PM 41.6467 -88.3325 49° Northeast 272 313 8,000 -1,020 Descending Chicago Center
04:23PM 41.6936 -88.2589 49° Northeast 262 302 7,000 -600 Descending Chicago Center
04:24PM 41.7375 -88.1883 50° Northeast 248 285 6,800 -900 Descending Chicago Center
04:25PM 41.7853 -88.1139 49° Northeast 224 258 5,200 -1,380 Descending Chicago Center
04:26PM 41.8250 -88.0536 49° Northeast 219 252 4,000 -1,200 Descending Chicago Center